Time;durP1;ratioP1;P1;durP2;ratioP2;P2;SDS_P1;SDS_P2;PMS_P1;PMS_P2;Temp;Humidity;BMP_temperature;BMP_pressure;BME280_temperature;BME280_humidity;BME280_pressure;Samples;Min_cycle;Max_cycle;Signal;HPM_P1;HPM_P2
2022/12/17 13:07:27;;;;;;;0.40;0.40;;;1.40;99.90;;;;;;5022697;28;20476;-83
2022/12/17 13:09:56;;;;;;;0.40;0.40;;;1.20;99.90;;;;;;5026478;28;20515;-83
2022/12/17 13:12:44;;;;;;;0.40;0.40;;;1.60;99.90;;;;;;5009090;28;21021;-81
2022/12/17 13:15:18;;;;;;;0.50;0.50;;;1.40;99.90;;;;;;5013443;28;20464;-82
2022/12/17 13:17:56;;;;;;;0.43;0.43;;;1.10;99.90;;;;;;5029766;28;20433;-84
2022/12/17 13:20:31;;;;;;;0.40;0.40;;;0.50;99.90;;;;;;5014037;28;20445;-84
2022/12/17 13:23:08;;;;;;;0.30;0.30;;;0.30;99.90;;;;;;5023614;28;20470;-84
2022/12/17 13:25:35;;;;;;;0.40;0.40;;;0.50;99.90;;;;;;5030074;28;20448;-83
2022/12/17 13:28:00;;;;;;;0.47;0.47;;;0.00;99.90;;;;;;5030180;28;20442;-85
2022/12/17 13:30:36;;;;;;;0.50;0.50;;;-0.40;99.90;;;;;;5028214;28;20503;-83
2022/12/17 13:33:17;;;;;;;0.50;0.50;;;-0.90;99.90;;;;;;5014875;28;20198;-83
2022/12/17 13:36:13;;;;;;;0.40;0.40;;;-1.30;99.90;;;;;;5025579;28;21215;-82
2022/12/17 13:38:50;;;;;;;0.60;0.60;;;-1.30;99.90;;;;;;5027790;28;20864;-82
2022/12/17 13:41:18;;;;;;;0.57;0.57;;;-1.80;99.90;;;;;;5028847;28;20521;-83
2022/12/17 13:43:56;;;;;;;0.60;0.60;;;-2.00;99.90;;;;;;5008790;28;20568;-84
2022/12/17 13:46:27;;;;;;;0.60;0.60;;;-2.30;99.90;;;;;;5016671;28;20442;-83
2022/12/17 13:48:58;;;;;;;0.60;0.60;;;-2.50;99.90;;;;;;5028944;28;20806;-82
2022/12/17 13:51:27;;;;;;;0.67;0.67;;;-2.60;99.90;;;;;;5029790;28;20434;-84
2022/12/17 13:54:01;;;;;;;0.73;0.73;;;-2.70;99.90;;;;;;5026067;28;20445;-82
2022/12/17 13:56:29;;;;;;;0.93;0.93;;;-2.80;99.90;;;;;;5029201;28;20528;-83
2022/12/17 13:58:57;;;;;;;0.60;0.60;;;-2.90;99.90;;;;;;5002742;28;20449;-82
2022/12/17 14:01:25;;;;;;;0.50;0.50;;;-2.90;99.90;;;;;;5027777;28;20477;-83
2022/12/17 14:04:03;;;;;;;0.80;0.80;;;-3.00;99.90;;;;;;5022755;28;20537;-82
2022/12/17 14:06:33;;;;;;;0.90;0.90;;;-3.00;99.90;;;;;;5018452;28;20455;-83
2022/12/17 14:09:00;;;;;;;0.80;0.80;;;-3.00;99.90;;;;;;5017968;28;20456;-83
2022/12/17 14:14:28;;;;;;;0.70;0.70;;;-3.20;99.90;;;;;;5021462;28;20445;-86
2022/12/17 14:16:54;;;;;;;0.67;0.67;;;-3.30;99.90;;;;;;5023229;28;20528;-84
2022/12/17 14:19:20;;;;;;;0.90;0.90;;;-3.30;99.90;;;;;;5023551;28;21199;-84
2022/12/17 14:21:46;;;;;;;0.60;0.60;;;-3.30;99.90;;;;;;5026409;28;20502;-83
2022/12/17 14:24:13;;;;;;;0.80;0.80;;;-3.40;99.90;;;;;;5023392;28;20214;-83
2022/12/17 14:27:25;;;;;;;0.80;0.80;;;-3.60;99.90;;;;;;5016795;28;20504;-84
2022/12/17 14:29:51;;;;;;;0.80;0.80;;;-3.70;99.90;;;;;;4979531;28;20446;-82
2022/12/17 14:32:29;;;;;;;0.80;0.80;;;-3.70;99.90;;;;;;5016054;28;20446;-82
2022/12/17 14:34:54;;;;;;;0.90;0.90;;;-3.80;99.90;;;;;;5003703;28;20184;-82
2022/12/17 14:37:25;;;;;;;0.57;0.57;;;-3.70;99.90;;;;;;5003665;28;20789;-82
2022/12/17 14:39:55;;;;;;;0.77;0.77;;;-3.70;99.90;;;;;;5021375;28;20196;-82
2022/12/17 14:42:31;;;;;;;0.87;0.87;;;-3.80;99.90;;;;;;5017310;28;20478;-84
2022/12/17 14:45:16;;;;;;;0.70;0.70;;;-3.80;99.90;;;;;;5021100;28;20816;-83
2022/12/17 14:47:58;;;;;;;0.60;0.60;;;-4.00;99.90;;;;;;5018166;28;20551;-83
2022/12/17 14:50:31;;;;;;;0.80;0.80;;;-4.00;99.90;;;;;;5021277;28;20485;-83
2022/12/17 14:53:00;;;;;;;0.60;0.60;;;-4.00;99.90;;;;;;5018129;28;21331;-82
2022/12/17 14:55:36;;;;;;;0.70;0.70;;;-4.00;99.90;;;;;;5020393;28;20477;-82
2022/12/17 14:58:10;;;;;;;0.80;0.80;;;-4.10;99.90;;;;;;5026119;28;20446;-84
2022/12/17 15:00:45;;;;;;;0.70;0.70;;;-4.10;99.90;;;;;;5027155;28;20472;-83
2022/12/17 15:03:21;;;;;;;0.87;0.87;;;-4.10;99.90;;;;;;5026726;28;20465;-82
2022/12/17 15:05:51;;;;;;;0.93;0.93;;;-4.10;99.90;;;;;;5018343;28;20438;-82
2022/12/17 15:08:17;;;;;;;1.00;1.00;;;-4.30;99.90;;;;;;5003281;28;20487;-81
2022/12/17 15:10:42;;;;;;;0.90;0.90;;;-4.30;99.90;;;;;;5017858;28;20469;-83
2022/12/17 15:13:08;;;;;;;0.90;0.90;;;-4.40;99.90;;;;;;5021738;28;21286;-84
2022/12/17 15:15:34;;;;;;;0.90;0.90;;;-4.60;99.90;;;;;;5026927;28;20214;-82
2022/12/17 15:18:00;;;;;;;0.80;0.80;;;-4.70;99.90;;;;;;5026520;28;21318;-82
2022/12/17 15:20:26;;;;;;;0.90;0.90;;;-4.70;99.90;;;;;;5007644;28;20202;-83
2022/12/17 15:22:53;;;;;;;0.80;0.80;;;-4.70;99.90;;;;;;5021591;28;20227;-82
2022/12/17 15:25:18;;;;;;;1.00;1.00;;;-4.60;99.90;;;;;;5010891;28;21182;-82
2022/12/17 15:27:44;;;;;;;0.90;0.90;;;-4.50;99.90;;;;;;5001156;28;20529;-81
2022/12/17 15:30:15;;;;;;;0.90;0.90;;;-4.50;99.90;;;;;;5001942;28;20500;-82
2022/12/17 15:32:42;;;;;;;0.83;0.83;;;-4.40;99.90;;;;;;5017537;28;20200;-82
2022/12/17 15:35:08;;;;;;;0.90;0.90;;;-4.50;99.90;;;;;;5024462;28;20891;-82
2022/12/17 15:37:34;;;;;;;1.00;1.00;;;-4.50;99.90;;;;;;4999169;28;20504;-82
2022/12/17 15:39:59;;;;;;;0.70;0.70;;;-4.50;99.90;;;;;;5024476;28;20704;-81
2022/12/17 15:45:09;;;;;;;1.10;1.10;;;-4.50;99.90;;;;;;5022353;28;20671;-81
2022/12/17 15:47:34;;;;;;;0.73;0.73;;;-4.50;99.90;;;;;;5026201;28;20454;-84
2022/12/17 15:50:00;;;;;;;0.80;0.80;;;-4.50;99.90;;;;;;5023339;28;20251;-81
2022/12/17 15:52:26;;;;;;;0.77;0.77;;;-4.50;99.90;;;;;;5018565;28;20675;-84
2022/12/17 15:54:51;;;;;;;0.80;0.80;;;-4.50;99.90;;;;;;5005449;28;20187;-84
2022/12/17 15:57:17;;;;;;;0.77;0.77;;;-4.50;99.90;;;;;;5005964;28;20644;-84
2022/12/17 15:59:43;;;;;;;0.70;0.70;;;-4.50;99.90;;;;;;5025748;28;20180;-77
2022/12/17 16:02:10;;;;;;;0.70;0.70;;;-4.60;99.90;;;;;;5009084;28;20258;-83
2022/12/17 16:04:36;;;;;;;0.73;0.73;;;-4.60;99.90;;;;;;5019927;28;20188;-89
2022/12/17 16:07:03;;;;;;;0.70;0.70;;;-4.60;99.90;;;;;;5026797;28;20551;-83
2022/12/17 16:09:29;;;;;;;0.87;0.87;;;-4.70;99.90;;;;;;5021928;28;20504;-85
2022/12/17 16:11:56;;;;;;;0.97;0.97;;;-4.60;99.90;;;;;;5023622;28;20454;-83
2022/12/17 16:14:25;;;;;;;0.67;0.67;;;-4.70;99.90;;;;;;5015589;28;20447;-83
2022/12/17 16:16:52;;;;;;;0.73;0.73;;;-4.70;99.90;;;;;;5022990;28;20933;-83
2022/12/17 16:19:20;;;;;;;0.63;0.63;;;-4.70;99.90;;;;;;5017996;28;20477;-82
2022/12/17 16:21:46;;;;;;;0.60;0.60;;;-4.60;99.90;;;;;;5023546;28;20940;-83
2022/12/17 16:24:12;;;;;;;0.73;0.73;;;-4.70;99.90;;;;;;5004266;28;20446;-86
2022/12/17 16:26:37;;;;;;;0.90;0.90;;;-4.70;99.90;;;;;;5019579;28;20186;-83
2022/12/17 16:29:03;;;;;;;0.70;0.70;;;-4.70;99.90;;;;;;5012174;28;20184;-83
2022/12/17 16:31:29;;;;;;;0.80;0.80;;;-4.80;99.90;;;;;;5002284;28;20604;-85
2022/12/17 16:33:54;;;;;;;0.70;0.70;;;-4.90;99.90;;;;;;5016486;28;20196;-84
2022/12/17 16:36:20;;;;;;;0.83;0.83;;;-5.00;99.90;;;;;;5022964;28;20245;-86
2022/12/17 16:38:49;;;;;;;0.83;0.83;;;-5.00;99.90;;;;;;5028993;28;20195;-85
2022/12/17 16:41:16;;;;;;;0.80;0.80;;;-5.00;99.90;;;;;;5028291;28;20710;-87
2022/12/17 16:43:41;;;;;;;0.90;0.90;;;-4.90;99.90;;;;;;5027726;28;20446;-84
2022/12/17 16:46:27;;;;;;;0.80;0.80;;;-4.90;99.90;;;;;;5027141;28;20499;-83
2022/12/17 16:48:54;;;;;;;0.70;0.70;;;-4.90;99.90;;;;;;5025157;28;20214;-84
2022/12/17 16:51:21;;;;;;;0.90;0.90;;;-4.90;99.90;;;;;;5031080;28;20410;-83
2022/12/17 16:53:47;;;;;;;0.60;0.60;;;-5.00;99.90;;;;;;5026939;28;20445;-84
2022/12/17 16:56:18;;;;;;;0.70;0.70;;;-5.00;99.90;;;;;;5026362;28;20449;-83
2022/12/17 16:58:44;;;;;;;0.90;0.90;;;-5.00;99.90;;;;;;5028666;28;20202;-84
2022/12/17 17:01:10;;;;;;;0.90;0.90;;;-5.00;99.90;;;;;;5007963;28;20493;-84
2022/12/17 17:03:40;;;;;;;0.90;0.90;;;-4.90;99.90;;;;;;5025228;28;20446;-83
2022/12/17 17:06:07;;;;;;;1.00;1.00;;;-5.00;99.90;;;;;;5008291;28;20456;-77
2022/12/17 17:08:35;;;;;;;0.90;0.90;;;-5.00;99.90;;;;;;5017441;28;20449;-77
2022/12/17 17:11:08;;;;;;;0.80;0.80;;;-4.90;99.90;;;;;;5024606;28;21033;-77
2022/12/17 17:13:34;;;;;;;0.67;0.67;;;-4.90;99.90;;;;;;5009607;28;20512;-77
2022/12/17 17:15:59;;;;;;;0.77;0.77;;;-5.00;99.90;;;;;;5024392;28;20445;-78
2022/12/17 17:18:28;;;;;;;0.90;0.90;;;-5.00;99.90;;;;;;5024942;28;21086;-78
2022/12/17 17:20:54;;;;;;;0.87;0.87;;;-5.00;99.90;;;;;;5024994;28;20647;-77
2022/12/17 17:23:20;;;;;;;1.00;1.00;;;-5.00;99.90;;;;;;5029256;28;20458;-77
2022/12/17 17:25:46;;;;;;;0.90;0.90;;;-5.10;99.90;;;;;;5027685;28;20523;-76
2022/12/17 17:28:11;;;;;;;0.80;0.80;;;-5.10;99.90;;;;;;5029404;28;20539;-77
2022/12/17 17:30:37;;;;;;;0.90;0.90;;;-5.20;99.90;;;;;;5023282;28;20533;-77
2022/12/17 17:33:02;;;;;;;0.80;0.80;;;-5.10;99.90;;;;;;5024652;28;21014;-76
2022/12/17 17:35:28;;;;;;;0.97;0.97;;;-5.10;99.90;;;;;;5025012;28;20469;-76
2022/12/17 17:37:53;;;;;;;0.80;0.80;;;-5.10;99.90;;;;;;5024458;28;20755;-76
2022/12/17 17:40:20;;;;;;;0.90;0.90;;;-5.10;99.90;;;;;;5022404;28;20192;-77
2022/12/17 17:42:45;;;;;;;0.90;0.90;;;-5.10;99.90;;;;;;5010301;28;20223;-77
2022/12/17 17:45:11;;;;;;;0.73;0.73;;;-5.10;99.90;;;;;;5027180;28;20446;-76
2022/12/17 17:47:36;;;;;;;1.00;1.00;;;-5.20;99.90;;;;;;5016967;28;20189;-77
2022/12/17 17:50:02;;;;;;;0.90;0.90;;;-5.20;99.90;;;;;;5027412;28;20237;-77
2022/12/17 17:52:27;;;;;;;0.77;0.77;;;-5.20;99.90;;;;;;5025786;28;20246;-77
2022/12/17 17:54:53;;;;;;;0.70;0.70;;;-5.30;99.90;;;;;;5022120;28;20220;-79
2022/12/17 17:57:19;;;;;;;1.00;1.00;;;-5.30;99.90;;;;;;5025698;28;20217;-78
2022/12/17 17:59:44;;;;;;;0.70;0.70;;;-5.30;99.90;;;;;;5027469;28;20697;-79
2022/12/17 18:02:10;;;;;;;1.30;1.30;;;-5.30;99.90;;;;;;5026287;28;20227;-79
2022/12/17 18:04:35;;;;;;;0.90;0.90;;;-5.30;99.90;;;;;;5020413;28;20185;-79
2022/12/17 18:07:01;;;;;;;1.03;1.03;;;-5.30;99.90;;;;;;5007567;28;20380;-78
2022/12/17 18:09:27;;;;;;;0.93;0.93;;;-5.30;99.90;;;;;;5028642;28;20183;-79
2022/12/17 18:11:52;;;;;;;1.00;1.00;;;-5.30;99.90;;;;;;5008636;28;20434;-78
2022/12/17 18:14:18;;;;;;;0.70;0.70;;;-5.30;99.90;;;;;;5025634;28;20191;-78
2022/12/17 18:16:46;;;;;;;0.73;0.73;;;-5.30;99.90;;;;;;5018247;28;20198;-79
2022/12/17 18:19:17;;;;;;;0.80;0.80;;;-5.30;99.90;;;;;;5021391;28;20188;-79
2022/12/17 18:21:42;;;;;;;0.80;0.80;;;-5.30;99.90;;;;;;5029097;28;20510;-79
2022/12/17 18:24:14;;;;;;;0.80;0.80;;;-5.30;99.90;;;;;;5024195;28;20474;-78
2022/12/17 18:26:41;;;;;;;0.80;0.80;;;-5.20;99.90;;;;;;5002658;28;20743;-78
2022/12/17 18:29:27;;;;;;;0.90;0.90;;;-5.20;99.90;;;;;;5015678;28;20526;-79
2022/12/17 18:31:53;;;;;;;0.93;0.93;;;-5.20;99.90;;;;;;5014150;28;20442;-78
2022/12/17 18:34:21;;;;;;;1.00;1.00;;;-5.20;99.90;;;;;;5024566;28;21343;-79
2022/12/17 18:36:48;;;;;;;1.10;1.10;;;-5.20;99.90;;;;;;5024121;28;20199;-79
2022/12/17 18:39:22;;;;;;;0.70;0.70;;;-5.20;99.90;;;;;;5010461;28;20434;-79
2022/12/17 18:44:37;;;;;;;0.90;0.90;;;-5.20;99.90;;;;;;5023985;28;20466;-77
2022/12/17 18:47:03;;;;;;;1.10;1.10;;;-5.20;99.90;;;;;;5024143;28;20515;-78
2022/12/17 18:49:28;;;;;;;1.00;1.00;;;-5.20;99.90;;;;;;5024489;28;20442;-76
2022/12/17 18:51:54;;;;;;;0.80;0.80;;;-5.20;99.90;;;;;;5023409;28;20285;-77
2022/12/17 18:54:22;;;;;;;0.93;0.93;;;-5.20;99.90;;;;;;5022212;28;20194;-77
2022/12/17 18:56:49;;;;;;;1.00;1.00;;;-5.20;99.90;;;;;;5026054;28;20211;-77
2022/12/17 18:59:17;;;;;;;0.93;0.93;;;-5.20;99.90;;;;;;5021871;28;20449;-76
2022/12/17 19:01:44;;;;;;;0.73;0.73;;;-5.20;99.90;;;;;;5023184;28;20605;-78
2022/12/17 19:04:12;;;;;;;1.07;1.07;;;-5.20;99.90;;;;;;5027081;28;20446;-78
2022/12/17 19:06:38;;;;;;;0.90;0.90;;;-5.20;99.90;;;;;;5027751;28;20458;-77
2022/12/17 19:09:05;;;;;;;0.70;0.70;;;-5.10;99.90;;;;;;5027220;28;20454;-78
2022/12/17 19:11:32;;;;;;;0.73;0.73;;;-5.10;99.90;;;;;;5026598;28;20968;-78
2022/12/17 19:13:58;;;;;;;0.90;0.90;;;-5.10;99.90;;;;;;5023074;28;20530;-77
2022/12/17 19:16:26;;;;;;;0.80;0.80;;;-5.10;99.90;;;;;;5020286;28;20471;-79
2022/12/17 19:19:01;;;;;;;0.80;0.80;;;-5.10;99.90;;;;;;5025363;28;20187;-80
2022/12/17 19:21:27;;;;;;;0.87;0.87;;;-5.10;99.90;;;;;;5024269;28;20592;-80
2022/12/17 19:24:01;;;;;;;0.73;0.73;;;-5.10;99.90;;;;;;5027502;28;20442;-80
2022/12/17 19:26:27;;;;;;;1.00;1.00;;;-5.10;99.90;;;;;;5023247;28;20954;-80
2022/12/17 19:28:55;;;;;;;1.03;1.03;;;-5.10;99.90;;;;;;5017430;28;20999;-80
2022/12/17 19:31:23;;;;;;;0.80;0.80;;;-5.10;99.90;;;;;;5007445;28;20446;-82
2022/12/17 19:33:53;;;;;;;0.73;0.73;;;-5.10;99.90;;;;;;5023145;28;20442;-81
2022/12/17 19:36:20;;;;;;;0.87;0.87;;;-5.10;99.90;;;;;;5003601;28;20966;-80
2022/12/17 19:38:49;;;;;;;0.80;0.80;;;-5.10;99.90;;;;;;5019296;28;20447;-80
2022/12/17 19:41:16;;;;;;;0.80;0.80;;;-5.10;99.90;;;;;;5007211;28;20481;-81
2022/12/17 19:43:43;;;;;;;0.77;0.77;;;-5.10;99.90;;;;;;5025587;28;20988;-81
2022/12/17 19:46:11;;;;;;;1.00;1.00;;;-5.10;99.90;;;;;;5007795;28;21069;-81
2022/12/17 19:48:39;;;;;;;0.70;0.70;;;-5.10;99.90;;;;;;5007972;28;20438;-80
2022/12/17 19:51:07;;;;;;;1.00;1.00;;;-5.10;99.90;;;;;;5025589;28;20489;-81
2022/12/17 19:53:34;;;;;;;0.70;0.70;;;-5.10;99.90;;;;;;5022778;28;20449;-80
2022/12/17 19:56:23;;;;;;;0.90;0.90;;;-5.10;99.90;;;;;;5005479;28;20449;-79
2022/12/17 19:58:51;;;;;;;0.87;0.87;;;-5.10;99.90;;;;;;5023372;28;20461;-80
2022/12/17 20:01:19;;;;;;;0.60;0.60;;;-5.10;99.90;;;;;;5004771;28;20483;-79
2022/12/17 20:03:46;;;;;;;0.83;0.83;;;-5.10;99.90;;;;;;5003095;28;20486;-79
2022/12/17 20:06:13;;;;;;;0.90;0.90;;;-5.10;99.90;;;;;;5006434;28;20438;-79
2022/12/17 20:08:40;;;;;;;0.70;0.70;;;-5.10;99.90;;;;;;5008089;28;20446;-80
2022/12/17 20:11:31;;;;;;;0.77;0.77;;;-5.20;99.90;;;;;;5003619;28;21010;-80
2022/12/17 20:14:15;;;;;;;0.73;0.73;;;-5.20;99.90;;;;;;5001934;28;20450;-80
2022/12/17 20:16:42;;;;;;;0.70;0.70;;;-5.10;99.90;;;;;;5002368;28;20556;-79
2022/12/17 20:19:12;;;;;;;0.80;0.80;;;-5.10;99.90;;;;;;5006173;28;20795;-80
2022/12/17 20:21:38;;;;;;;1.00;1.00;;;-5.10;99.90;;;;;;5021954;28;20510;-79
2022/12/17 20:24:04;;;;;;;0.90;0.90;;;-5.20;99.90;;;;;;5003365;28;20446;-80
2022/12/17 20:26:30;;;;;;;1.07;1.07;;;-5.10;99.90;;;;;;5004587;28;20459;-79
2022/12/17 20:28:55;;;;;;;0.70;0.70;;;-5.10;99.90;;;;;;5005216;28;21018;-80
2022/12/17 20:31:21;;;;;;;0.90;0.90;;;-5.10;99.90;;;;;;5006288;28;20447;-79
2022/12/17 20:33:46;;;;;;;0.87;0.87;;;-5.10;99.90;;;;;;5005441;28;20310;-81
2022/12/17 20:36:15;;;;;;;0.80;0.80;;;-5.10;99.90;;;;;;5001049;28;20533;-80
2022/12/17 20:38:42;;;;;;;1.00;1.00;;;-5.00;99.90;;;;;;5002662;28;20198;-80
2022/12/17 20:41:09;;;;;;;0.80;0.80;;;-5.00;99.90;;;;;;5004652;28;20541;-80
2022/12/17 20:43:34;;;;;;;0.90;0.90;;;-5.10;99.90;;;;;;5004372;28;21090;-80
2022/12/17 20:46:00;;;;;;;0.73;0.73;;;-5.00;99.90;;;;;;5005303;28;20447;-80
2022/12/17 20:48:25;;;;;;;0.80;0.80;;;-5.00;99.90;;;;;;5005751;28;20188;-80
2022/12/17 20:50:51;;;;;;;0.77;0.77;;;-5.00;99.90;;;;;;5000284;28;20214;-80
2022/12/17 20:53:17;;;;;;;0.87;0.87;;;-5.00;99.90;;;;;;4993484;28;20654;-80
2022/12/17 20:55:42;;;;;;;0.80;0.80;;;-5.00;99.90;;;;;;5005154;28;20196;-80
2022/12/17 20:58:08;;;;;;;0.90;0.90;;;-5.00;99.90;;;;;;5001769;28;20188;-79
2022/12/17 21:00:33;;;;;;;0.60;0.60;;;-5.00;99.90;;;;;;5006869;28;20223;-79
2022/12/17 21:02:59;;;;;;;0.70;0.70;;;-5.00;99.90;;;;;;5020102;28;20223;-80
2022/12/17 21:05:25;;;;;;;0.73;0.73;;;-5.00;99.90;;;;;;4998372;28;20180;-80
2022/12/17 21:07:51;;;;;;;1.00;1.00;;;-5.00;99.90;;;;;;5014607;28;20283;-80
2022/12/17 21:10:17;;;;;;;1.10;1.10;;;-5.10;99.90;;;;;;5017929;28;21024;-80
2022/12/17 21:15:26;;;;;;;0.80;0.80;;;-5.10;99.90;;;;;;5016774;28;20194;-80
2022/12/17 21:17:52;;;;;;;1.07;1.07;;;-5.10;99.90;;;;;;5008820;28;20458;-80
2022/12/17 21:20:17;;;;;;;0.83;0.83;;;-5.10;99.90;;;;;;5022901;28;20183;-80
2022/12/17 21:22:43;;;;;;;0.80;0.80;;;-5.10;99.90;;;;;;5023071;28;20700;-80
2022/12/17 21:25:09;;;;;;;0.70;0.70;;;-5.10;99.90;;;;;;5011359;28;20239;-80
2022/12/17 21:27:34;;;;;;;0.90;0.90;;;-5.10;99.90;;;;;;5032673;28;20800;-80
2022/12/17 21:30:00;;;;;;;0.87;0.87;;;-5.10;99.90;;;;;;5023776;28;20198;-80
2022/12/17 21:32:26;;;;;;;0.87;0.87;;;-5.10;99.90;;;;;;5024464;28;20210;-80
2022/12/17 21:34:51;;;;;;;1.00;1.00;;;-5.10;99.90;;;;;;5030818;28;20937;-80
2022/12/17 21:37:17;;;;;;;0.70;0.70;;;-5.10;99.90;;;;;;5010531;28;21030;-79
2022/12/17 21:39:43;;;;;;;1.00;1.00;;;-5.10;99.90;;;;;;5028861;28;20275;-80
2022/12/17 21:44:53;;;;;;;0.80;0.80;;;-5.10;99.90;;;;;;5032029;28;20199;-80
2022/12/17 21:47:18;;;;;;;0.67;0.67;;;-5.10;99.90;;;;;;5028593;28;20442;-80
2022/12/17 21:49:44;;;;;;;0.90;0.90;;;-5.20;99.90;;;;;;5012195;28;20198;-80
2022/12/17 21:52:10;;;;;;;0.83;0.83;;;-5.10;99.90;;;;;;5031470;28;20234;-80
2022/12/17 21:54:36;;;;;;;0.80;0.80;;;-5.20;99.90;;;;;;5028090;28;20452;-80
2022/12/17 21:57:01;;;;;;;0.60;0.60;;;-5.10;99.90;;;;;;5021621;28;20254;-80
2022/12/17 21:59:27;;;;;;;0.73;0.73;;;-5.20;99.90;;;;;;5032579;28;20930;-80
2022/12/17 22:01:55;;;;;;;1.00;1.00;;;-5.10;99.90;;;;;;5031229;28;20265;-80
2022/12/17 22:04:22;;;;;;;1.00;1.00;;;-5.10;99.90;;;;;;5032279;28;20183;-80
2022/12/17 22:06:47;;;;;;;0.83;0.83;;;-5.10;99.90;;;;;;5029814;28;20549;-81
2022/12/17 22:09:13;;;;;;;0.77;0.77;;;-5.10;99.90;;;;;;5031321;28;20824;-80
2022/12/17 22:11:38;;;;;;;0.80;0.80;;;-5.10;99.90;;;;;;5028862;28;20662;-80
2022/12/17 22:14:10;;;;;;;0.90;0.90;;;-5.10;99.90;;;;;;5023532;28;20808;-81
2022/12/17 22:16:42;;;;;;;0.90;0.90;;;-5.00;99.90;;;;;;5023311;28;20277;-80
2022/12/17 22:19:09;;;;;;;1.00;1.00;;;-5.00;99.90;;;;;;5021900;28;20450;-80
2022/12/17 22:21:38;;;;;;;0.73;0.73;;;-5.00;99.90;;;;;;5022707;28;20500;-80
2022/12/17 22:24:04;;;;;;;0.80;0.80;;;-5.00;99.90;;;;;;4994568;28;20426;-80
2022/12/17 22:26:30;;;;;;;0.60;0.60;;;-4.90;99.90;;;;;;5021504;28;20458;-80
2022/12/17 22:28:56;;;;;;;0.80;0.80;;;-5.00;99.90;;;;;;5014108;28;21017;-80
2022/12/17 22:34:09;;;;;;;0.90;0.90;;;-4.90;99.90;;;;;;5022075;28;20198;-80
2022/12/17 22:36:34;;;;;;;0.80;0.80;;;-4.90;99.90;;;;;;5007972;28;20453;-80
2022/12/17 22:39:07;;;;;;;0.70;0.70;;;-4.90;99.90;;;;;;5029177;28;20942;-80
2022/12/17 22:44:16;;;;;;;0.80;0.80;;;-4.90;99.90;;;;;;5030779;28;20508;-80
2022/12/17 22:46:42;;;;;;;0.97;0.97;;;-4.90;99.90;;;;;;5010954;28;20442;-80
2022/12/17 22:49:08;;;;;;;0.90;0.90;;;-5.00;99.90;;;;;;5025945;28;20274;-80
2022/12/17 22:51:33;;;;;;;0.63;0.63;;;-4.90;99.90;;;;;;5025437;28;20333;-80
2022/12/17 22:54:01;;;;;;;0.70;0.70;;;-4.90;99.90;;;;;;5029683;28;20199;-80
2022/12/17 22:56:26;;;;;;;0.97;0.97;;;-4.90;99.90;;;;;;5019271;28;20187;-81
2022/12/17 22:58:52;;;;;;;0.70;0.70;;;-4.90;99.90;;;;;;5031464;28;20438;-80
2022/12/17 23:01:18;;;;;;;0.70;0.70;;;-4.90;99.90;;;;;;5021456;28;20231;-81
2022/12/17 23:03:43;;;;;;;0.90;0.90;;;-4.90;99.90;;;;;;5010416;28;20195;-80
2022/12/17 23:06:12;;;;;;;0.70;0.70;;;-5.00;99.90;;;;;;5026099;28;20202;-81
2022/12/17 23:08:38;;;;;;;0.70;0.70;;;-4.90;99.90;;;;;;5010132;28;20187;-81
2022/12/17 23:11:16;;;;;;;0.90;0.90;;;-5.00;99.90;;;;;;5024727;28;20524;-80
2022/12/17 23:13:42;;;;;;;0.60;0.60;;;-5.00;99.90;;;;;;5011917;28;20738;-80
2022/12/17 23:16:10;;;;;;;0.63;0.63;;;-5.00;99.90;;;;;;5025696;28;20453;-80
2022/12/17 23:18:36;;;;;;;0.90;0.90;;;-5.00;99.90;;;;;;5018809;28;20512;-80
2022/12/17 23:21:18;;;;;;;0.80;0.80;;;-5.00;99.90;;;;;;5023096;28;20454;-80
2022/12/17 23:23:43;;;;;;;0.80;0.80;;;-5.00;99.90;;;;;;5009562;28;20253;-81
2022/12/17 23:26:12;;;;;;;0.73;0.73;;;-5.00;99.90;;;;;;5026639;28;20433;-80
2022/12/17 23:28:38;;;;;;;0.80;0.80;;;-5.00;99.90;;;;;;5029317;28;20184;-80
2022/12/17 23:31:12;;;;;;;0.70;0.70;;;-5.00;99.90;;;;;;5027703;28;20576;-80
2022/12/17 23:33:38;;;;;;;0.80;0.80;;;-5.00;99.90;;;;;;4997078;28;21025;-81
2022/12/17 23:36:10;;;;;;;1.10;1.10;;;-5.00;99.90;;;;;;5008524;28;20469;-80
2022/12/17 23:38:36;;;;;;;0.70;0.70;;;-5.00;99.90;;;;;;5004597;28;20438;-81
2022/12/17 23:41:09;;;;;;;1.10;1.10;;;-5.00;99.90;;;;;;5027752;28;20458;-80
2022/12/17 23:43:36;;;;;;;1.00;1.00;;;-5.00;99.90;;;;;;5010234;28;20679;-80
2022/12/17 23:46:03;;;;;;;0.70;0.70;;;-5.00;99.90;;;;;;5027917;28;20478;-81
2022/12/17 23:48:34;;;;;;;0.70;0.70;;;-5.00;99.90;;;;;;5029422;28;21168;-80
2022/12/17 23:51:00;;;;;;;0.73;0.73;;;-5.10;99.90;;;;;;5029334;28;20508;-80
2022/12/17 23:53:27;;;;;;;0.90;0.90;;;-5.10;99.90;;;;;;5027777;28;20472;-80
2022/12/17 23:55:52;;;;;;;0.90;0.90;;;-5.10;99.90;;;;;;5009037;28;20439;-80
2022/12/17 23:58:19;;;;;;;0.70;0.70;;;-5.10;99.90;;;;;;5009988;28;20504;-80
